Station Historical Data
Daily Summary for October 20, 2017 Units:  English    Metric   Both
« Previous Day
Next Day »
Daily Weekly Monthly Yearly Custom
  High: Low: Average:
Temperature: 67.4 °F 40.9 °F 54.1 °F
Dew Point: 49.9 °F 35.4 °F 41.9 °F
Humidity: 86% 36% 66%
Wind Speed: 8.0mph 0.0mph 1.1mph
Wind Gust: 12.0mph - -
Wind- - SW
Pressure: 30.29 in 30.12 in -
Precipitation: 0.00 in    
Historical Graphs
 
 
Tabular Data for October 20, 2017
Time Temperature Dew Point Pressure Wind Wind Speed Wind Gust Humidity Rainfall Rate (Hourly)
00:04 46.8 °F 40.6 °F 30.12 in Calm     79% 0.00 in
00:09 46.7 °F 40.5 °F 30.12 in Calm     79% 0.00 in
00:14 46.5 °F 40.3 °F 30.12 in Calm     79% 0.00 in
00:19 46.3 °F 40.1 °F 30.12 in Calm     79% 0.00 in
00:24 46.3 °F 40.1 °F 30.12 in Calm     79% 0.00 in
00:29 46.2 °F 40.0 °F 30.12 in Calm     79% 0.00 in
00:34 46.1 °F 39.9 °F 30.12 in Calm     79% 0.00 in
00:39 46.2 °F 39.4 °F 30.12 in Calm     77% 0.00 in
00:44 46.6 °F 39.1 °F 30.12 in Calm     75% 0.00 in
00:49 47.5 °F 38.2 °F 30.12 in Calm   1.0 mph 70% 0.00 in
00:54 48.6 °F 37.7 °F 30.12 in Calm   3.0 mph 66% 0.00 in
00:59 49.1 °F 37.0 °F 30.12 in Calm     63% 0.00 in
01:04 49.3 °F 36.4 °F 30.12 in Calm     61% 0.00 in
01:09 49.6 °F 36.3 °F 30.12 in Calm     60% 0.00 in
01:14 49.8 °F 36.0 °F 30.12 in Calm     59% 0.00 in
01:19 49.6 °F 35.8 °F 30.12 in Calm     59% 0.00 in
01:24 49.8 °F 35.6 °F 30.12 in Calm     58% 0.00 in
01:29 49.7 °F 35.5 °F 30.12 in Calm     58% 0.00 in
01:34 49.3 °F 35.6 °F 30.13 in Calm     59% 0.00 in
01:39 49.2 °F 35.5 °F 30.12 in Calm     59% 0.00 in
01:44 48.7 °F 35.8 °F 30.12 in Calm     61% 0.00 in
01:49 48.3 °F 35.9 °F 30.13 in Calm     62% 0.00 in
01:54 49.1 °F 35.4 °F 30.13 in Calm   2.0 mph 59% 0.00 in
01:59 49.6 °F 35.4 °F 30.13 in Calm   2.0 mph 58% 0.00 in
02:04 49.6 °F 35.8 °F 30.13 in Calm   1.0 mph 59% 0.00 in
02:09 49.4 °F 35.7 °F 30.13 in Calm   2.0 mph 59% 0.00 in
02:14 49.2 °F 35.5 °F 30.14 in Calm     59% 0.00 in
02:19 48.8 °F 35.5 °F 30.14 in Calm     60% 0.00 in
02:24 48.5 °F 35.7 °F 30.14 in Calm     61% 0.00 in
02:29 47.9 °F 36.3 °F 30.14 in Calm     64% 0.00 in
02:34 47.4 °F 36.6 °F 30.14 in Calm     66% 0.00 in
02:39 47.0 °F 37.0 °F 30.14 in Calm     68% 0.00 in
02:44 46.9 °F 37.6 °F 30.14 in Calm     70% 0.00 in
02:49 46.6 °F 38.1 °F 30.14 in Calm     72% 0.00 in
02:54 46.5 °F 38.3 °F 30.14 in Calm     73% 0.00 in
02:59 46.1 °F 38.3 °F 30.14 in Calm     74% 0.00 in
03:04 45.9 °F 38.4 °F 30.15 in Calm     75% 0.00 in
03:09 45.8 °F 38.7 °F 30.14 in Calm     76% 0.00 in
03:14 45.7 °F 38.9 °F 30.15 in Calm     77% 0.00 in
03:19 45.4 °F 38.9 °F 30.15 in Calm     78% 0.00 in
03:24 45.2 °F 39.1 °F 30.15 in Calm     79% 0.00 in
03:29 45.0 °F 38.9 °F 30.15 in Calm     79% 0.00 in
03:34 44.9 °F 38.8 °F 30.15 in Calm     79% 0.00 in
03:39 44.7 °F 38.9 °F 30.15 in Calm     80% 0.00 in
03:44 44.5 °F 38.7 °F 30.15 in Calm     80% 0.00 in
03:49 44.2 °F 38.7 °F 30.15 in Calm     81% 0.00 in
03:54 44.2 °F 38.7 °F 30.15 in Calm     81% 0.00 in
03:59 43.9 °F 38.4 °F 30.15 in Calm     81% 0.00 in
04:04 43.7 °F 38.6 °F 30.15 in Calm     82% 0.00 in
04:09 43.6 °F 38.5 °F 30.16 in Calm     82% 0.00 in
04:14 43.7 °F 38.9 °F 30.16 in Calm     83% 0.00 in
04:19 43.5 °F 38.4 °F 30.16 in Calm     82% 0.00 in
04:24 43.3 °F 38.2 °F 30.16 in Calm     82% 0.00 in
04:29 43.6 °F 38.8 °F 30.16 in Calm   2.0 mph 83% 0.00 in
04:34 44.6 °F 38.8 °F 30.16 in Calm   3.0 mph 80% 0.00 in
04:39 45.8 °F 39.0 °F 30.16 in Calm   3.0 mph 77% 0.00 in
04:44 46.9 °F 38.7 °F 30.16 in Calm   5.0 mph 73% 0.00 in
04:49 47.8 °F 38.5 °F 30.17 in WNW 2.0 mph 4.0 mph 70% 0.00 in
04:54 48.2 °F 38.5 °F 30.17 in Calm   4.0 mph 69% 0.00 in
04:59 48.3 °F 38.2 °F 30.17 in Calm   2.0 mph 68% 0.00 in
05:04 48.2 °F 38.1 °F 30.17 in Calm   1.0 mph 68% 0.00 in
05:09 48.1 °F 38.0 °F 30.17 in Calm   1.0 mph 68% 0.00 in
05:14 47.5 °F 37.8 °F 30.17 in Calm     69% 0.00 in
05:19 46.9 °F 37.6 °F 30.18 in Calm     70% 0.00 in
05:24 46.1 °F 37.6 °F 30.18 in Calm     72% 0.00 in
05:29 45.3 °F 37.2 °F 30.18 in Calm     73% 0.00 in
05:34 44.8 °F 37.4 °F 30.19 in Calm     75% 0.00 in
05:39 44.5 °F 37.4 °F 30.19 in Calm     76% 0.00 in
05:44 44.2 °F 37.1 °F 30.19 in Calm     76% 0.00 in
05:49 43.9 °F 37.2 °F 30.19 in Calm     77% 0.00 in
05:54 43.7 °F 37.0 °F 30.20 in Calm     77% 0.00 in
05:59 43.4 °F 37.0 °F 30.19 in Calm     78% 0.00 in
06:04 43.2 °F 37.1 °F 30.20 in Calm     79% 0.00 in
06:09 43.0 °F 36.6 °F 30.20 in Calm     78% 0.00 in
06:14 43.0 °F 36.9 °F 30.20 in Calm     79% 0.00 in
06:19 42.9 °F 36.8 °F 30.20 in Calm     79% 0.00 in
06:24 42.8 °F 36.7 °F 30.20 in Calm     79% 0.00 in
06:29 42.7 °F 37.0 °F 30.21 in Calm     80% 0.00 in
06:34 42.5 °F 36.8 °F 30.21 in Calm     80% 0.00 in
06:44 41.9 °F 36.8 °F 30.22 in Calm     82% 0.00 in
06:49 41.7 °F 36.6 °F 30.22 in Calm     82% 0.00 in
06:54 41.5 °F 36.7 °F 30.22 in Calm     83% 0.00 in
06:59 41.4 °F 36.6 °F 30.22 in Calm     83% 0.00 in
07:04 41.2 °F 36.7 °F 30.22 in Calm     84% 0.00 in
07:09 41.1 °F 36.6 °F 30.22 in Calm     84% 0.00 in
07:14 41.1 °F 36.6 °F 30.23 in Calm     84% 0.00 in
07:19 41.0 °F 36.5 °F 30.23 in Calm     84% 0.00 in
07:24 40.9 °F 36.7 °F 30.23 in Calm     85% 0.00 in
07:29 40.9 °F 36.7 °F 30.23 in Calm     85% 0.00 in
07:34 40.9 °F 36.7 °F 30.23 in Calm     85% 0.00 in
07:39 40.9 °F 36.7 °F 30.23 in Calm     85% 0.00 in
07:44 40.9 °F 37.0 °F 30.24 in Calm     86% 0.00 in
07:49 41.0 °F 37.1 °F 30.24 in Calm     86% 0.00 in
07:54 41.0 °F 37.1 °F 30.24 in Calm     86% 0.00 in
07:59 41.0 °F 36.8 °F 30.24 in Calm     85% 0.00 in
08:04 41.3 °F 37.4 °F 30.25 in Calm     86% 0.00 in
08:09 41.8 °F 37.6 °F 30.25 in Calm     85% 0.00 in
08:14 42.2 °F 38.0 °F 30.25 in Calm     85% 0.00 in
08:19 42.6 °F 38.1 °F 30.26 in Calm     84% 0.00 in
08:24 43.3 °F 38.8 °F 30.26 in Calm     84% 0.00 in
08:29 43.9 °F 39.1 °F 30.27 in Calm     83% 0.00 in
08:34 44.8 °F 39.6 °F 30.27 in Calm     82% 0.00 in
08:39 45.5 °F 40.3 °F 30.27 in Calm     82% 0.00 in
08:44 46.6 °F 40.8 °F 30.27 in Calm     80% 0.00 in
08:49 47.4 °F 40.9 °F 30.27 in Calm     78% 0.00 in
08:54 48.6 °F 41.7 °F 30.27 in Calm     77% 0.00 in
08:59 49.7 °F 41.7 °F 30.28 in Calm     74% 0.00 in
09:04 50.5 °F 41.8 °F 30.28 in West 2.0 mph 2.0 mph 72% 0.00 in
09:09 51.3 °F 42.2 °F 30.28 in Calm   3.0 mph 71% 0.00 in
09:14 51.9 °F 42.4 °F 30.28 in Calm   3.0 mph 70% 0.00 in
09:19 52.4 °F 42.9 °F 30.28 in Calm   3.0 mph 70% 0.00 in
09:24 53.0 °F 42.3 °F 30.28 in Calm   2.0 mph 67% 0.00 in
09:29 53.8 °F 43.9 °F 30.29 in Calm   2.0 mph 69% 0.00 in
09:34 54.0 °F 42.5 °F 30.29 in WSW 2.0 mph 3.0 mph 65% 0.00 in
09:39 54.6 °F 43.5 °F 30.29 in Calm   3.0 mph 66% 0.00 in
09:44 55.0 °F 43.4 °F 30.29 in WSW 1.0 mph 3.0 mph 65% 0.00 in
09:49 55.3 °F 43.3 °F 30.29 in SW 1.0 mph 5.0 mph 64% 0.00 in
09:54 55.8 °F 44.2 °F 30.28 in SSW 1.0 mph 5.0 mph 65% 0.00 in
09:59 56.4 °F 44.4 °F 30.28 in Calm   3.0 mph 64% 0.00 in
10:04 56.9 °F 44.4 °F 30.28 in South 1.0 mph 3.0 mph 63% 0.00 in
10:09 57.3 °F 44.8 °F 30.28 in SSE 2.0 mph 4.0 mph 63% 0.00 in
10:14 57.9 °F 45.0 °F 30.28 in South 1.0 mph 4.0 mph 62% 0.00 in
10:19 58.6 °F 46.0 °F 30.28 in South 2.0 mph 4.0 mph 63% 0.00 in
10:24 58.9 °F 45.9 °F 30.28 in SSW 2.0 mph 4.0 mph 62% 0.00 in
10:29 59.3 °F 46.3 °F 30.28 in SW 2.0 mph 5.0 mph 62% 0.00 in
10:34 59.3 °F 46.7 °F 30.28 in SSW 3.0 mph 7.0 mph 63% 0.00 in
10:39 59.8 °F 46.7 °F 30.28 in SSW 2.0 mph 5.0 mph 62% 0.00 in
10:44 60.0 °F 45.6 °F 30.28 in WSW 2.0 mph 6.0 mph 59% 0.00 in
10:49 60.4 °F 46.0 °F 30.28 in SW 2.0 mph 7.0 mph 59% 0.00 in
10:54 61.3 °F 46.4 °F 30.28 in SW 2.0 mph 7.0 mph 58% 0.00 in
10:59 61.0 °F 44.7 °F 30.27 in SW 2.0 mph 7.0 mph 55% 0.00 in
11:04 61.1 °F 44.8 °F 30.27 in SW 2.0 mph 5.0 mph 55% 0.00 in
11:09 61.4 °F 45.1 °F 30.27 in SSE 4.0 mph 6.0 mph 55% 0.00 in
11:14 62.1 °F 45.2 °F 30.27 in SW 3.0 mph 5.0 mph 54% 0.00 in
11:19 62.0 °F 45.2 °F 30.27 in SSW 2.0 mph 5.0 mph 54% 0.00 in
11:24 62.4 °F 44.5 °F 30.27 in SW 2.0 mph 4.0 mph 52% 0.00 in
11:29 63.0 °F 43.0 °F 30.27 in SW 3.0 mph 5.0 mph 48% 0.00 in
11:34 63.2 °F 45.8 °F 30.27 in SW 2.0 mph 4.0 mph 53% 0.00 in
11:39 63.4 °F 42.8 °F 30.27 in SSW 4.0 mph 5.0 mph 47% 0.00 in
11:44 63.2 °F 40.9 °F 30.27 in Calm   4.0 mph 44% 0.00 in
11:49 63.7 °F 40.2 °F 30.27 in West 1.0 mph 4.0 mph 42% 0.00 in
11:54 64.0 °F 38.5 °F 30.27 in West 1.0 mph 4.0 mph 39% 0.00 in
11:59 63.9 °F 38.4 °F 30.27 in West 1.0 mph 3.0 mph 39% 0.00 in
12:04 64.5 °F 40.9 °F 30.27 in WSW 1.0 mph 5.0 mph 42% 0.00 in
12:09 64.9 °F 42.5 °F 30.27 in SW 1.0 mph 5.0 mph 44% 0.00 in
12:14 65.2 °F 43.3 °F 30.26 in SW 2.0 mph 8.0 mph 45% 0.00 in
12:19 65.1 °F 43.2 °F 30.26 in SSW 2.0 mph 8.0 mph 45% 0.00 in
12:24 65.2 °F 45.5 °F 30.26 in SW 2.0 mph 6.0 mph 49% 0.00 in
12:29 65.9 °F 44.5 °F 30.26 in SSW 2.0 mph 6.0 mph 46% 0.00 in
12:34 65.3 °F 42.8 °F 30.26 in WSW 4.0 mph 7.0 mph 44% 0.00 in
12:39 65.5 °F 43.6 °F 30.26 in WSW 3.0 mph 6.0 mph 45% 0.00 in
12:44 66.1 °F 46.4 °F 30.26 in WSW 4.0 mph 6.0 mph 49% 0.00 in
12:49 65.5 °F 46.9 °F 30.26 in WNW 4.0 mph 9.0 mph 51% 0.00 in
12:54 66.0 °F 47.3 °F 30.26 in WSW 4.0 mph 9.0 mph 51% 0.00 in
12:59 65.8 °F 42.7 °F 30.26 in WSW 3.0 mph 7.0 mph 43% 0.00 in
13:04 65.9 °F 43.4 °F 30.25 in WSW 4.0 mph 7.0 mph 44% 0.00 in
13:09 66.1 °F 44.7 °F 30.25 in WSW 3.0 mph 7.0 mph 46% 0.00 in
13:14 66.5 °F 43.9 °F 30.25 in West 3.0 mph 7.0 mph 44% 0.00 in
13:24 66.4 °F 42.6 °F 30.25 in WSW 3.0 mph 7.0 mph 42% 0.00 in
13:29 66.3 °F 40.6 °F 30.25 in SW 2.0 mph 6.0 mph 39% 0.00 in
13:34 66.6 °F 40.9 °F 30.25 in SW 6.0 mph 6.0 mph 39% 0.00 in
13:39 66.5 °F 42.7 °F 30.25 in SW 8.0 mph 8.0 mph 42% 0.00 in
13:44 66.2 °F 43.0 °F 30.25 in WSW 4.0 mph 8.0 mph 43% 0.00 in
13:49 66.4 °F 40.7 °F 30.24 in WSW 2.0 mph 6.0 mph 39% 0.00 in
13:54 66.6 °F 44.0 °F 30.24 in South 1.0 mph 6.0 mph 44% 0.00 in
13:59 67.4 °F 44.7 °F 30.24 in SW 2.0 mph 5.0 mph 44% 0.00 in
14:04 66.8 °F 44.8 °F 30.24 in WSW 3.0 mph 8.0 mph 45% 0.00 in
14:09 66.5 °F 47.8 °F 30.24 in WSW 4.0 mph 10.0 mph 51% 0.00 in
14:14 66.0 °F 46.3 °F 30.24 in WSW 4.0 mph 10.0 mph 49% 0.00 in
14:19 66.3 °F 46.0 °F 30.24 in WNW 6.0 mph 10.0 mph 48% 0.00 in
14:24 66.0 °F 46.8 °F 30.23 in SW 5.0 mph 9.0 mph 50% 0.00 in
14:29 65.6 °F 48.5 °F 30.24 in SSW 7.0 mph 9.0 mph 54% 0.00 in
14:34 65.5 °F 49.9 °F 30.24 in WSW 5.0 mph 10.0 mph 57% 0.00 in
14:39 65.6 °F 47.5 °F 30.23 in WSW 5.0 mph 10.0 mph 52% 0.00 in
14:44 65.9 °F 48.3 °F 30.23 in WSW 5.0 mph 10.0 mph 53% 0.00 in
14:49 65.9 °F 49.3 °F 30.23 in WSW 6.0 mph 9.0 mph 55% 0.00 in
14:54 65.6 °F 48.5 °F 30.23 in WSW 2.0 mph 9.0 mph 54% 0.00 in
14:59 65.5 °F 48.4 °F 30.23 in WSW 6.0 mph 11.0 mph 54% 0.00 in
15:04 65.5 °F 47.9 °F 30.23 in SW 7.0 mph 11.0 mph 53% 0.00 in
15:09 65.6 °F 47.5 °F 30.22 in WSW 5.0 mph 11.0 mph 52% 0.00 in
15:14 66.0 °F 47.9 °F 30.22 in WSW 4.0 mph 9.0 mph 52% 0.00 in
15:19 66.6 °F 47.4 °F 30.22 in SW 3.0 mph 7.0 mph 50% 0.00 in
15:24 66.4 °F 46.7 °F 30.22 in WSW 3.0 mph 8.0 mph 49% 0.00 in
15:29 66.6 °F 46.8 °F 30.22 in WSW 4.0 mph 9.0 mph 49% 0.00 in
15:34 66.6 °F 46.8 °F 30.22 in WSW 5.0 mph 6.0 mph 49% 0.00 in
15:39 66.2 °F 45.9 °F 30.23 in WSW 7.0 mph 9.0 mph 48% 0.00 in
15:44 66.4 °F 46.7 °F 30.22 in West 5.0 mph 12.0 mph 49% 0.00 in
15:49 66.3 °F 46.6 °F 30.22 in WSW 3.0 mph 7.0 mph 49% 0.00 in
15:54 66.4 °F 44.4 °F 30.22 in West 4.0 mph 8.0 mph 45% 0.00 in
15:59 66.5 °F 46.2 °F 30.22 in WSW 3.0 mph 7.0 mph 48% 0.00 in
16:04 66.4 °F 43.8 °F 30.22 in West 4.0 mph 7.0 mph 44% 0.00 in
16:09 66.1 °F 44.7 °F 30.22 in West 8.0 mph 8.0 mph 46% 0.00 in
16:14 66.0 °F 44.0 °F 30.21 in WSW 2.0 mph 8.0 mph 45% 0.00 in
16:19 66.3 °F 44.3 °F 30.21 in WSW 4.0 mph 8.0 mph 45% 0.00 in
16:24 66.4 °F 42.0 °F 30.21 in SW 3.0 mph 7.0 mph 41% 0.00 in
16:29 66.4 °F 41.3 °F 30.21 in SW 4.0 mph 7.0 mph 40% 0.00 in
16:34 66.4 °F 40.7 °F 30.21 in SW 4.0 mph 7.0 mph 39% 0.00 in
16:39 66.4 °F 40.7 °F 30.21 in WSW 3.0 mph 7.0 mph 39% 0.00 in
16:44 66.7 °F 40.3 °F 30.21 in SSW 4.0 mph 5.0 mph 38% 0.00 in
16:49 66.2 °F 38.4 °F 30.21 in WSW 3.0 mph 7.0 mph 36% 0.00 in
16:54 66.2 °F 39.8 °F 30.21 in WSW 3.0 mph 7.0 mph 38% 0.00 in
16:59 66.0 °F 39.7 °F 30.21 in WSW 3.0 mph 7.0 mph 38% 0.00 in
17:04 65.9 °F 39.6 °F 30.21 in SW 1.0 mph 6.0 mph 38% 0.00 in
17:09 65.6 °F 40.6 °F 30.21 in SW 3.0 mph 5.0 mph 40% 0.00 in
17:14 65.2 °F 40.3 °F 30.20 in SW 2.0 mph 6.0 mph 40% 0.00 in
17:19 65.0 °F 40.7 °F 30.20 in SW 1.0 mph 6.0 mph 41% 0.00 in
17:24 64.7 °F 41.1 °F 30.20 in SW 2.0 mph 6.0 mph 42% 0.00 in
17:29 64.3 °F 41.3 °F 30.20 in SW 2.0 mph 5.0 mph 43% 0.00 in
17:34 64.0 °F 37.9 °F 30.20 in SW 2.0 mph 7.0 mph 38% 0.00 in
17:39 63.8 °F 37.7 °F 30.20 in SW 1.0 mph 6.0 mph 38% 0.00 in
17:44 63.5 °F 37.4 °F 30.20 in SW 1.0 mph 6.0 mph 38% 0.00 in
17:49 63.3 °F 36.6 °F 30.20 in SW 4.0 mph 6.0 mph 37% 0.00 in
17:54 62.9 °F 37.5 °F 30.20 in Calm   5.0 mph 39% 0.00 in
17:59 62.4 °F 38.4 °F 30.20 in SW 2.0 mph 5.0 mph 41% 0.00 in
18:04 61.8 °F 39.1 °F 30.20 in SW 1.0 mph 4.0 mph 43% 0.00 in
18:09 61.2 °F 39.7 °F 30.19 in Calm   2.0 mph 45% 0.00 in
18:14 60.9 °F 40.5 °F 30.19 in SSW 1.0 mph 3.0 mph 47% 0.00 in
18:19 60.5 °F 41.2 °F 30.19 in SSW 2.0 mph 2.0 mph 49% 0.00 in
18:24 59.9 °F 42.2 °F 30.19 in SW 2.0 mph 4.0 mph 52% 0.00 in
18:29 59.6 °F 42.9 °F 30.19 in Calm   5.0 mph 54% 0.00 in
18:34 59.3 °F 43.1 °F 30.19 in SW 1.0 mph 5.0 mph 55% 0.00 in
18:39 58.8 °F 43.1 °F 30.19 in Calm   3.0 mph 56% 0.00 in
18:44 58.2 °F 44.4 °F 30.19 in Calm   1.0 mph 60% 0.00 in
18:49 57.8 °F 45.3 °F 30.19 in Calm   1.0 mph 63% 0.00 in
18:54 57.6 °F 46.3 °F 30.19 in Calm     66% 0.00 in
18:59 57.2 °F 46.3 °F 30.19 in Calm     67% 0.00 in
19:04 56.8 °F 46.7 °F 30.19 in Calm   2.0 mph 69% 0.00 in
19:09 56.5 °F 47.2 °F 30.19 in Calm   2.0 mph 71% 0.00 in
19:14 56.4 °F 47.9 °F 30.19 in Calm     73% 0.00 in
19:19 56.3 °F 48.1 °F 30.19 in Calm     74% 0.00 in
19:24 56.1 °F 47.9 °F 30.19 in Calm     74% 0.00 in
19:29 55.7 °F 47.9 °F 30.19 in Calm     75% 0.00 in
19:34 55.5 °F 48.1 °F 30.19 in Calm     76% 0.00 in
19:39 55.6 °F 48.2 °F 30.18 in Calm     76% 0.00 in
19:44 55.6 °F 48.2 °F 30.19 in Calm   2.0 mph 76% 0.00 in
19:49 55.4 °F 48.0 °F 30.18 in Calm     76% 0.00 in
19:54 55.1 °F 47.7 °F 30.18 in Calm     76% 0.00 in
19:59 54.9 °F 47.8 °F 30.18 in Calm   2.0 mph 77% 0.00 in
20:04 54.7 °F 48.0 °F 30.18 in Calm     78% 0.00 in
20:09 54.5 °F 47.8 °F 30.18 in Calm     78% 0.00 in
20:14 54.3 °F 47.6 °F 30.18 in Calm     78% 0.00 in
20:19 53.8 °F 47.4 °F 30.18 in Calm     79% 0.00 in
20:24 53.4 °F 47.4 °F 30.17 in Calm     80% 0.00 in
20:29 53.4 °F 47.7 °F 30.17 in Calm     81% 0.00 in
20:34 53.3 °F 47.6 °F 30.17 in Calm     81% 0.00 in
20:39 53.1 °F 47.4 °F 30.17 in Calm     81% 0.00 in
20:44 52.8 °F 47.1 °F 30.17 in Calm     81% 0.00 in
20:49 52.6 °F 46.9 °F 30.17 in Calm     81% 0.00 in
20:54 52.5 °F 46.8 °F 30.17 in Calm     81% 0.00 in
20:59 52.3 °F 47.0 °F 30.18 in Calm     82% 0.00 in
21:04 52.1 °F 46.8 °F 30.18 in Calm     82% 0.00 in
21:09 51.8 °F 46.5 °F 30.18 in Calm     82% 0.00 in
21:14 51.7 °F 46.4 °F 30.17 in Calm     82% 0.00 in
21:19 51.5 °F 46.2 °F 30.17 in Calm     82% 0.00 in
21:24 51.2 °F 45.9 °F 30.18 in Calm     82% 0.00 in
21:29 51.1 °F 45.8 °F 30.18 in Calm     82% 0.00 in
21:34 51.1 °F 45.8 °F 30.18 in Calm     82% 0.00 in
21:39 51.1 °F 45.8 °F 30.18 in Calm     82% 0.00 in
21:44 51.1 °F 45.5 °F 30.18 in Calm     81% 0.00 in
21:49 51.0 °F 45.4 °F 30.18 in Calm     81% 0.00 in
21:54 51.0 °F 45.4 °F 30.19 in Calm     81% 0.00 in
21:59 50.8 °F 45.2 °F 30.19 in Calm     81% 0.00 in
22:04 50.6 °F 45.3 °F 30.19 in Calm     82% 0.00 in
22:09 50.6 °F 45.3 °F 30.19 in Calm     82% 0.00 in
22:14 50.4 °F 45.1 °F 30.19 in Calm     82% 0.00 in
22:19 50.0 °F 44.7 °F 30.19 in Calm     82% 0.00 in
22:24 50.0 °F 44.7 °F 30.19 in Calm     82% 0.00 in
22:29 49.9 °F 44.6 °F 30.19 in Calm     82% 0.00 in
22:34 49.7 °F 44.7 °F 30.19 in Calm     83% 0.00 in
22:39 49.7 °F 44.7 °F 30.19 in Calm     83% 0.00 in
22:44 49.5 °F 44.6 °F 30.19 in Calm     83% 0.00 in
22:49 49.5 °F 44.6 °F 30.20 in Calm     83% 0.00 in
22:54 49.5 °F 44.6 °F 30.20 in Calm     83% 0.00 in
22:59 49.6 °F 45.0 °F 30.20 in Calm     84% 0.00 in
23:04 49.9 °F 45.3 °F 30.20 in Calm     84% 0.00 in
23:09 49.9 °F 44.9 °F 30.20 in Calm     83% 0.00 in
23:24 49.2 °F 44.6 °F 30.20 in Calm     84% 0.00 in
23:34 48.8 °F 44.2 °F 30.20 in Calm     84% 0.00 in
23:39 48.8 °F 44.2 °F 30.20 in Calm     84% 0.00 in
23:44 48.8 °F 44.2 °F 30.20 in Calm     84% 0.00 in
23:49 48.7 °F 43.8 °F 30.20 in Calm     83% 0.00 in
23:54 48.8 °F 43.9 °F 30.20 in Calm     83% 0.00 in
23:59 48.4 °F 43.2 °F 30.21 in Calm     82% 0.00 in
Buffalo, New York, USA
Compliments of Weather Underground - 2.5 mb